Skip to main content

NOAA/GLERL Met Station at Michigan City, IN

Previous 3 Hours (2 minute increments)
See also Previous 5 Days (top of hour)
Jump down to Data
Switch to [English][Metric]
Zoom: Click and drag, Pan: shift-click and drag, Unzoom: double-click, Unzoom All






See also 1-day windrose plot


NOAA/GLERL Met Station at Michigan City, IN

Previous 3 Hours (2 minute increments)
See also Previous 5 Days (top of hour only)
Jump up to Graphs
Switch to [English][Metric]
                  Wind  Wind  Wind   Air   Dew   Rel     Sta   PAR
                   Spd   Gst   Dir  Temp    Pt   Hum    Pres uE/m2/
YYYY-MM-DD   CDT   m/s   m/s   deg     C     C     %      mb   sec
2021-04-19 13:36   7.7   8.4   276   5.6   4.4  92.2  989.40   164
2021-04-19 13:34   7.7   8.6   281   5.5   4.6  93.7  989.40   164
2021-04-19 13:32   8.1   8.8   279   5.5   4.7  94.8  989.10   164
2021-04-19 13:30   7.6   8.6   279   5.4   4.7  95.3  988.90   164
2021-04-19 13:28   5.4   7.0   293   5.4   4.7  95.5  989.00   164
2021-04-19 13:26   4.1   5.6   306   5.3   4.7  95.6  989.00   164
2021-04-19 13:24   4.4   5.2   299   5.3   4.7  95.7  989.00   164
2021-04-19 13:22   6.3   7.0   286   5.3   4.7  95.8  988.90   164
2021-04-19 13:20   5.2   6.5   296   5.3   4.7  95.8  988.90   164
2021-04-19 13:18   5.2   5.8   299   5.3   4.7  95.7  988.90   164
2021-04-19 13:16   5.2   6.0   300   5.3   4.7  95.7  988.90   164
2021-04-19 13:14   4.9   5.9   309   5.3   4.7  95.6  989.00   164
2021-04-19 13:12   3.7   4.6   310   5.3   4.7  95.6  989.00   164
2021-04-19 13:10   4.3   5.7   316   5.2   4.5  95.5  989.40   164
2021-04-19 13:08   3.9   4.5   323   5.3   4.6  95.5  989.50   164
2021-04-19 13:06   3.8   4.2   318   5.3   4.6  95.4  989.50   164
2021-04-19 13:04   3.9   4.6   318   5.3   4.6  95.3  989.40   164
2021-04-19 13:02   4.0   4.5   320   5.3   4.6  95.3  989.20   164
2021-04-19 13:00   4.2   5.0   333   5.2   4.5  95.1  989.00   164
2021-04-19 12:58   4.5   5.1   333   5.2   4.5  94.9  989.00   164
2021-04-19 12:56   4.3   4.6   336   5.3   4.5  94.8  989.00   164
2021-04-19 12:54   4.1   4.9   341   5.3   4.5  94.6  989.00   164
2021-04-19 12:52   4.8   5.6   340   5.3   4.5  94.4  989.00   164
2021-04-19 12:50   4.8   5.6   342   5.3   4.5  94.3  989.00   164
2021-04-19 12:48   4.8   5.3   344   5.2   4.3  94.1  989.00   164
2021-04-19 12:46   5.6   6.5   345   5.3   4.4  94.0  989.00   164
2021-04-19 12:44   5.3   6.1   345   5.3   4.4  93.9  989.00   164
2021-04-19 12:42   5.6   6.3   345   5.3   4.4  93.7  989.00   164
2021-04-19 12:40   6.0   6.7   347   5.3   4.4  93.6  989.50   164
2021-04-19 12:38   5.6   6.2   345   5.3   4.3  93.5  989.50   164
2021-04-19 12:36   6.6   7.3   345   5.3   4.3  93.2  989.50   164
2021-04-19 12:34   6.8   7.6   339   5.2   4.2  92.9  989.50   164
2021-04-19 12:32   7.2   8.2   342   5.2   4.1  92.8  989.20   164
2021-04-19 12:30   7.3   8.0   342   5.2   4.1  92.7  989.00   164
2021-04-19 12:28   7.7   8.5   343   5.3   4.2  92.6  988.80   164
2021-04-19 12:26   7.6   8.2   337   5.3   4.2  92.6  988.80   164
2021-04-19 12:24   7.4   8.5   338   5.2   4.1  92.7  988.70   164
2021-04-19 12:22   8.5   9.4   341   5.2   4.1  92.8  988.60   164
2021-04-19 12:20   7.9   8.7   337   5.3   4.3  92.9  988.60   232
2021-04-19 12:18   8.3   9.2   337   5.2   4.2  93.0  988.60   226
2021-04-19 12:16   8.6  10.2   337   5.3   4.3  93.0  988.70   205
2021-04-19 12:14   8.3   9.0   334   5.3   4.3  93.0  988.70   164
2021-04-19 12:12   8.0   9.0   337   5.5   4.5  93.0  988.80   164
2021-04-19 12:10   7.4   8.8   335   5.5   4.4  92.9  989.20   157
2021-04-19 12:08   8.1   9.0   337   5.5   4.4  92.8  989.10   150
2021-04-19 12:06   8.6   9.6   337   5.5   4.4  92.6  989.00   103
2021-04-19 12:04   7.8   8.6   338   5.5   4.4  92.5  988.90   164
2021-04-19 12:02   7.9   8.7   337   5.6   4.5  92.3  988.70   164
2021-04-19 12:00   7.5   8.7   337   5.7   4.5  91.9  988.50   164
2021-04-19 11:58   7.2   8.3   338   5.7   4.5  91.7  988.40   164
2021-04-19 11:56   7.8   8.4   338   5.8   4.5  91.3  988.40   164
2021-04-19 11:54   6.6   8.0   340   5.9   4.6  91.2  988.50   164
2021-04-19 11:52   7.2   8.0   339   5.9   4.5  90.8  988.40   164
2021-04-19 11:50   7.3   8.5   343   5.9   4.5  90.7  988.30   212
2021-04-19 11:48   7.4   8.0   346   6.0   4.6  90.6  988.20   328
2021-04-19 11:46   7.4   8.0   345   6.0   4.5  90.3  988.10   328
2021-04-19 11:44   7.8   8.9   353   6.0   4.5  90.0  988.00   328
2021-04-19 11:42   7.6   9.7   347   6.1   4.6  89.8  988.00   328
2021-04-19 11:40   7.8   9.4   346   6.1   4.5  89.4  988.60   328
2021-04-19 11:38   8.2   9.0   346   6.1   4.4  88.9  988.50   328
2021-04-19 11:36   8.0   9.1   345   6.2   4.5  88.5  988.60   328
2021-04-19 11:34   9.1  10.1   339   6.2   4.4  87.9  988.60   328
2021-04-19 11:32   9.6  10.5   338   6.3   4.4  87.6  988.30   328
2021-04-19 11:30   9.0  10.2   339   6.5   4.5  87.0  988.00   328
2021-04-19 11:28   9.8  10.9   334   6.6   4.4  85.9  987.90   307
2021-04-19 11:26  10.4  11.6   335   6.8   4.4  84.3  987.90   280
2021-04-19 11:24  10.6  11.9   337   7.2   4.3  81.7  987.90   328
2021-04-19 11:22  10.8  11.3   328   7.7   4.3  78.7  987.80   328
2021-04-19 11:20   9.2   9.7   319   8.2   4.4  76.6  987.70   328
2021-04-19 11:18   9.5  10.0   315   8.6   4.3  74.0  987.70   328
2021-04-19 11:16   9.1   9.9   313   8.7   4.2  73.0  987.60   342
2021-04-19 11:14   7.9   8.7   298   9.0   4.6  74.0  987.60   328
2021-04-19 11:12   7.1   8.3   278   9.1   4.5  72.9  987.60   226
2021-04-19 11:10   6.5   7.2   265   9.1   4.4  72.3  988.00   321
2021-04-19 11:08   6.6   7.1   259   9.1   4.4  72.1  987.90   294
2021-04-19 11:06   6.7   7.1   257   9.2   4.2  70.7  987.80   328
2021-04-19 11:04   6.6   7.3   256   9.2   4.2  70.6  987.90   492
2021-04-19 11:02   6.6   7.1   255   9.2   4.1  70.4  987.60   492
2021-04-19 11:00   6.6   7.0   254   9.2   4.1  70.2  987.40   492
2021-04-19 10:58   6.7   7.0   253   9.2   4.1  70.4  987.40   506
2021-04-19 10:56   6.6   6.9   254   9.2   4.2  70.7  987.40   635
2021-04-19 10:54   6.6   7.0   254   9.2   4.1  70.5  987.40   492
2021-04-19 10:52   6.8   7.7   253   9.2   4.0  69.8  987.40   492
2021-04-19 10:50   6.8   7.4   254   9.2   4.1  70.4  987.40   430
2021-04-19 10:48   6.7   7.0   255   9.2   4.0  69.9  987.40   328
2021-04-19 10:46   6.8   7.2   254   9.2   4.0  69.8  987.40   328
2021-04-19 10:44   6.5   6.7   255   9.2   4.2  70.9  987.50   328
2021-04-19 10:42   6.2   6.6   257   9.2   4.3  71.1  987.30   328
2021-04-19 10:40   6.4   7.2   258   9.0   4.4  72.9  987.70   328
2021-04-19 10:38   5.8   6.6   263   9.0   4.6  74.0  987.80   328
2021-04-19 10:36   6.1   6.6   262   9.1   4.5  72.8  987.70   328